Time;durP1;ratioP1;P1;durP2;ratioP2;P2;SDS_P1;SDS_P2;PMS_P1;PMS_P2;Temp;Humidity;BMP_temperature;BMP_pressure;BME280_temperature;BME280_humidity;BME280_pressure;Samples;Min_cycle;Max_cycle;Signal;HPM_P1;HPM_P2
2022/01/14 00:01:03;;;;;;;77.55;24.63;;;6.00;99.90;;;;;;4999618;28;20388;-44
2022/01/14 00:03:30;;;;;;;95.05;26.90;;;6.00;99.90;;;;;;5015380;28;20053;-44
2022/01/14 00:05:56;;;;;;;82.07;26.13;;;6.00;99.90;;;;;;4993494;28;20038;-45
2022/01/14 00:08:23;;;;;;;82.60;25.88;;;6.00;99.90;;;;;;4995554;28;20494;-43
2022/01/14 00:10:50;;;;;;;86.28;27.35;;;6.10;99.90;;;;;;4998195;28;20054;-44
2022/01/14 00:13:39;;;;;;;92.07;27.70;;;6.10;99.90;;;;;;4994979;28;20086;-44
2022/01/14 00:16:06;;;;;;;79.82;27.20;;;6.00;99.90;;;;;;4984749;28;20058;-44
2022/01/14 00:18:32;;;;;;;88.03;28.05;;;6.10;99.90;;;;;;4999764;28;20054;-44
2022/01/14 00:21:00;;;;;;;79.30;25.95;;;6.10;99.90;;;;;;5010420;28;20054;-44
2022/01/14 00:23:31;;;;;;;80.00;27.00;;;6.10;99.90;;;;;;5002830;28;20562;-44
2022/01/14 00:31:43;;;;;;;105.72;28.77;;;6.10;99.90;;;;;;5001026;28;20050;-44
2022/01/14 00:34:10;;;;;;;95.32;28.23;;;6.10;99.90;;;;;;4995393;28;20068;-44
2022/01/14 00:36:37;;;;;;;84.03;26.80;;;6.10;99.90;;;;;;4993828;28;20050;-43
2022/01/14 00:39:04;;;;;;;106.25;29.30;;;6.10;99.90;;;;;;5001562;28;20057;-45
2022/01/14 00:41:31;;;;;;;96.65;28.20;;;6.10;99.90;;;;;;5014747;28;20056;-44
2022/01/14 00:44:01;;;;;;;99.05;27.48;;;6.10;99.90;;;;;;5009690;28;20503;-43
2022/01/14 00:46:29;;;;;;;114.93;28.45;;;6.10;99.90;;;;;;4996633;28;20483;-44
2022/01/14 00:48:56;;;;;;;110.40;27.63;;;6.10;99.90;;;;;;5024347;28;20470;-43
2022/01/14 00:51:22;;;;;;;113.93;28.55;;;6.10;99.90;;;;;;4995260;28;20058;-45
2022/01/14 00:53:49;;;;;;;123.47;29.45;;;6.10;99.90;;;;;;5022499;28;20054;-42
2022/01/14 00:56:26;;;;;;;106.15;27.85;;;6.10;99.90;;;;;;4994498;28;20101;-44
2022/01/14 01:01:38;;;;;;;111.47;28.67;;;6.10;99.90;;;;;;4994964;28;20125;-45
2022/01/14 01:04:05;;;;;;;119.20;28.52;;;6.10;99.90;;;;;;5009904;28;20141;-44
2022/01/14 01:06:32;;;;;;;106.88;28.75;;;6.10;99.90;;;;;;5007229;28;20076;-45
2022/01/14 01:08:59;;;;;;;89.55;27.95;;;6.10;99.90;;;;;;5014187;28;20056;-43
2022/01/14 01:11:30;;;;;;;112.80;29.98;;;6.10;99.90;;;;;;5003665;28;20054;-44
2022/01/14 01:14:03;;;;;;;94.80;29.20;;;6.10;99.90;;;;;;4998733;28;20046;-44
2022/01/14 01:16:30;;;;;;;107.38;29.60;;;6.10;99.90;;;;;;4995147;28;20065;-43
2022/01/14 01:18:58;;;;;;;86.95;28.38;;;6.10;99.90;;;;;;4994108;28;20418;-45
2022/01/14 01:21:25;;;;;;;87.85;27.67;;;6.10;99.90;;;;;;5004271;28;20060;-44
2022/01/14 01:23:51;;;;;;;99.82;29.38;;;6.10;99.90;;;;;;4999550;28;20054;-45
2022/01/14 01:26:25;;;;;;;91.47;29.05;;;6.10;99.90;;;;;;5009107;28;20050;-44
2022/01/14 01:29:02;;;;;;;92.38;30.27;;;6.10;99.90;;;;;;5008749;28;20073;-45
2022/01/14 01:31:38;;;;;;;99.03;30.08;;;6.10;99.90;;;;;;4993350;28;20145;-44
2022/01/14 01:34:08;;;;;;;96.90;29.63;;;6.10;99.90;;;;;;4996967;28;20047;-44
2022/01/14 01:36:35;;;;;;;95.63;29.50;;;6.10;99.90;;;;;;4991928;28;20468;-43
2022/01/14 01:39:03;;;;;;;76.47;27.90;;;6.10;99.90;;;;;;5008825;28;20174;-43
2022/01/14 01:41:29;;;;;;;82.40;26.65;;;6.10;99.90;;;;;;4994154;28;20056;-47
2022/01/14 01:43:56;;;;;;;86.50;30.67;;;6.10;99.90;;;;;;5008589;28;20077;-43
2022/01/14 01:46:23;;;;;;;90.32;29.95;;;6.20;99.90;;;;;;5012047;28;20054;-44
2022/01/14 01:48:50;;;;;;;76.28;28.58;;;6.20;99.90;;;;;;4993093;28;20060;-42
2022/01/14 01:51:19;;;;;;;74.18;28.73;;;6.20;99.90;;;;;;4996800;28;20082;-44
2022/01/14 01:53:45;;;;;;;78.30;28.73;;;6.20;99.90;;;;;;4991826;28;20122;-43
2022/01/14 01:56:12;;;;;;;67.78;26.60;;;6.20;99.90;;;;;;4992949;28;20054;-44
2022/01/14 01:58:39;;;;;;;76.90;28.90;;;6.20;99.90;;;;;;5003448;28;20046;-45
2022/01/14 02:01:06;;;;;;;95.35;31.63;;;6.20;99.90;;;;;;4987948;28;20399;-43
2022/01/14 02:03:33;;;;;;;89.25;30.67;;;6.20;99.90;;;;;;4993820;28;20391;-44
2022/01/14 02:05:59;;;;;;;90.25;31.40;;;6.20;99.90;;;;;;4992672;28;20058;-45
2022/01/14 02:08:27;;;;;;;82.47;31.20;;;6.20;99.90;;;;;;4993385;28;20411;-43
2022/01/14 02:10:54;;;;;;;86.82;32.10;;;6.20;99.90;;;;;;4994815;28;20146;-42
2022/01/14 02:13:21;;;;;;;92.05;31.90;;;6.20;99.90;;;;;;4993643;28;20380;-44
2022/01/14 02:15:50;;;;;;;84.13;29.88;;;6.20;99.90;;;;;;4994527;28;20050;-43
2022/01/14 02:18:32;;;;;;;76.75;30.75;;;6.20;99.90;;;;;;5007876;28;20050;-44
2022/01/14 02:23:47;;;;;;;81.90;31.25;;;6.20;99.90;;;;;;5008232;28;20054;-44
2022/01/14 02:26:16;;;;;;;72.93;30.75;;;6.20;99.90;;;;;;4992265;28;20661;-44
2022/01/14 02:28:43;;;;;;;69.60;29.92;;;6.20;99.90;;;;;;4992140;28;20133;-45
2022/01/14 02:31:10;;;;;;;77.35;30.00;;;6.20;99.90;;;;;;4993261;28;20060;-45
2022/01/14 02:33:36;;;;;;;83.38;31.42;;;6.20;99.90;;;;;;5007502;28;20085;-45
2022/01/14 02:36:05;;;;;;;75.85;31.67;;;6.20;99.90;;;;;;4992655;28;20049;-44
2022/01/14 02:38:31;;;;;;;81.70;33.90;;;6.20;99.90;;;;;;4993429;28;20054;-44
2022/01/14 02:40:58;;;;;;;73.60;31.35;;;6.30;99.90;;;;;;4993194;28;20499;-43
2022/01/14 02:43:26;;;;;;;80.20;33.97;;;6.20;99.90;;;;;;5010947;28;20100;-44
2022/01/14 02:45:55;;;;;;;91.90;33.88;;;6.20;99.90;;;;;;4996428;28;20053;-43
2022/01/14 02:48:23;;;;;;;100.47;36.63;;;6.20;99.90;;;;;;4992990;28;20058;-42
2022/01/14 02:50:57;;;;;;;88.35;34.90;;;6.20;99.90;;;;;;4993163;28;20142;-44
2022/01/14 02:53:28;;;;;;;76.40;32.03;;;6.20;99.90;;;;;;4992612;28;20050;-43
2022/01/14 02:55:56;;;;;;;;;;;6.20;99.90;;;;;;4992216;28;20503;-44
2022/01/14 02:58:22;;;;;;;86.00;31.60;;;6.20;99.90;;;;;;4996858;28;20013;-43
2022/01/14 03:00:49;;;;;;;78.63;33.05;;;6.20;99.90;;;;;;4991781;28;20050;-44
2022/01/14 03:03:16;;;;;;;76.40;30.80;;;6.20;99.90;;;;;;4991983;28;20497;-45
2022/01/14 03:05:42;;;;;;;82.35;31.95;;;6.20;99.90;;;;;;5020940;28;20053;-45
2022/01/14 03:08:46;;;;;;;85.78;32.60;;;6.20;99.90;;;;;;5011385;28;20054;-45
2022/01/14 03:11:16;;;;;;;73.88;30.70;;;6.20;99.90;;;;;;5010673;28;20076;-43
2022/01/14 03:13:43;;;;;;;87.57;31.95;;;6.20;99.90;;;;;;5020712;28;20467;-44
2022/01/14 03:16:09;;;;;;;83.15;32.40;;;6.20;99.90;;;;;;5014815;28;20056;-44
2022/01/14 03:18:43;;;;;;;77.20;31.75;;;6.20;99.90;;;;;;5008933;28;20060;-44
2022/01/14 03:21:11;;;;;;;67.18;28.50;;;6.20;99.90;;;;;;5015178;28;20479;-43
2022/01/14 03:23:44;;;;;;;72.35;30.92;;;6.20;99.90;;;;;;5008275;28;20050;-43
2022/01/14 03:26:11;;;;;;;79.90;29.60;;;6.20;99.90;;;;;;5001483;28;20104;-45
2022/01/14 03:28:39;;;;;;;75.53;29.17;;;6.10;99.90;;;;;;5015940;28;20500;-43
2022/01/14 03:31:05;;;;;;;80.15;30.65;;;6.10;99.90;;;;;;5015855;28;20064;-43
2022/01/14 03:33:32;;;;;;;85.47;31.45;;;6.10;99.90;;;;;;4994776;28;20050;-43
2022/01/14 03:35:59;;;;;;;91.70;31.05;;;6.10;99.90;;;;;;4996333;28;20482;-45
2022/01/14 03:38:26;;;;;;;87.63;30.42;;;6.10;99.90;;;;;;4997931;28;20055;-44
2022/01/14 03:40:52;;;;;;;81.55;29.10;;;6.10;99.90;;;;;;5011520;28;20054;-43
2022/01/14 03:43:19;;;;;;;74.18;28.42;;;6.10;99.90;;;;;;4995832;28;20409;-44
2022/01/14 03:45:49;;;;;;;81.38;30.30;;;6.10;99.90;;;;;;5011372;28;20060;-44
2022/01/14 03:48:16;;;;;;;68.70;28.23;;;6.10;99.90;;;;;;5011408;28;20058;-45
2022/01/14 03:50:42;;;;;;;80.03;30.10;;;6.10;99.90;;;;;;5011502;28;20402;-44
2022/01/14 03:53:11;;;;;;;79.53;30.55;;;6.10;99.90;;;;;;5010543;28;20058;-44
2022/01/14 03:55:38;;;;;;;69.97;29.60;;;6.10;99.90;;;;;;4995795;28;20052;-44
2022/01/14 03:58:05;;;;;;;72.28;30.55;;;6.10;99.90;;;;;;4996800;28;20524;-43
2022/01/14 04:00:31;;;;;;;79.72;29.98;;;6.10;99.90;;;;;;5011196;28;20053;-44
2022/01/14 04:02:59;;;;;;;77.63;30.65;;;6.10;99.90;;;;;;4994778;28;20062;-43
2022/01/14 04:05:26;;;;;;;73.18;29.10;;;6.10;99.90;;;;;;4995697;28;20053;-45
2022/01/14 04:07:53;;;;;;;73.78;28.15;;;6.10;99.90;;;;;;4995686;28;20469;-45
2022/01/14 04:10:21;;;;;;;74.13;29.13;;;6.10;99.90;;;;;;5012468;28;20053;-43
2022/01/14 04:12:52;;;;;;;73.70;30.98;;;6.10;99.90;;;;;;4997639;28;20077;-43
2022/01/14 04:18:05;;;;;;;82.55;31.00;;;6.10;99.90;;;;;;4994678;28;20368;-43
2022/01/14 04:20:31;;;;;;;72.35;28.60;;;6.10;99.90;;;;;;5010563;28;20129;-44
2022/01/14 04:22:58;;;;;;;74.00;29.98;;;6.10;99.90;;;;;;4995132;28;20135;-44
2022/01/14 04:25:25;;;;;;;71.10;29.77;;;6.10;99.90;;;;;;4994092;28;20058;-43
2022/01/14 04:27:52;;;;;;;67.78;28.90;;;6.10;99.90;;;;;;4996593;28;20463;-43
2022/01/14 04:30:19;;;;;;;68.53;30.17;;;6.00;99.90;;;;;;5014360;28;20050;-44
2022/01/14 04:32:45;;;;;;;76.07;29.92;;;6.00;99.90;;;;;;4997958;28;20064;-43
2022/01/14 04:35:13;;;;;;;70.18;29.30;;;6.10;99.90;;;;;;5010971;28;20045;-43
2022/01/14 04:37:40;;;;;;;70.18;28.92;;;6.00;99.90;;;;;;4994734;28;20406;-44
2022/01/14 04:40:08;;;;;;;76.72;30.38;;;6.00;99.90;;;;;;5006905;28;20056;-48
2022/01/14 04:42:36;;;;;;;68.53;30.35;;;6.00;99.90;;;;;;5001061;28;20137;-43
2022/01/14 04:45:03;;;;;;;68.85;27.80;;;6.10;99.90;;;;;;5011237;28;20397;-44
2022/01/14 04:47:44;;;;;;;59.72;27.42;;;6.00;99.90;;;;;;5011492;28;20053;-43
2022/01/14 04:50:10;;;;;;;69.50;29.00;;;6.00;99.90;;;;;;5006825;28;20103;-45
2022/01/14 04:52:39;;;;;;;71.05;29.65;;;6.00;99.90;;;;;;4999249;28;20141;-46
2022/01/14 04:55:07;;;;;;;68.70;30.50;;;6.00;99.90;;;;;;5004657;28;20213;-42
2022/01/14 04:57:34;;;;;;;68.80;29.10;;;6.10;99.90;;;;;;4994653;28;20046;-44
2022/01/14 05:00:00;;;;;;;78.93;30.73;;;6.00;99.90;;;;;;5010506;28;20062;-44
2022/01/14 05:02:27;;;;;;;64.53;28.35;;;6.00;99.90;;;;;;4994457;28;20054;-43
2022/01/14 05:04:56;;;;;;;71.63;28.02;;;6.00;99.90;;;;;;4996179;28;20054;-45
2022/01/14 05:07:25;;;;;;;66.40;28.77;;;6.00;99.90;;;;;;4999499;28;20057;-45
2022/01/14 05:10:08;;;;;;;66.88;29.52;;;6.00;99.90;;;;;;5016339;28;20125;-44
2022/01/14 05:12:35;;;;;;;69.32;29.83;;;6.00;99.90;;;;;;4993305;28;20133;-44
2022/01/14 05:15:03;;;;;;;66.53;29.83;;;6.00;99.90;;;;;;4994851;28;20057;-45
2022/01/14 05:17:29;;;;;;;57.42;25.25;;;6.00;99.90;;;;;;5009752;28;20058;-45
2022/01/14 05:19:58;;;;;;;64.93;28.60;;;6.00;99.90;;;;;;4998585;28;20057;-44
2022/01/14 05:22:24;;;;;;;65.78;27.58;;;5.90;99.90;;;;;;5005060;28;20487;-44
2022/01/14 05:24:52;;;;;;;67.93;27.73;;;5.90;99.90;;;;;;5000041;28;20133;-45
2022/01/14 05:27:19;;;;;;;71.43;30.52;;;5.90;99.90;;;;;;5009371;28;20093;-44
2022/01/14 05:29:46;;;;;;;69.38;29.58;;;5.90;99.90;;;;;;5003905;28;20066;-44
2022/01/14 05:32:14;;;;;;;66.00;28.75;;;5.90;99.90;;;;;;4992129;28;20073;-45
2022/01/14 05:34:42;;;;;;;59.90;28.08;;;5.90;99.90;;;;;;4992957;28;20483;-42
2022/01/14 05:37:09;;;;;;;61.30;29.52;;;5.90;99.90;;;;;;4992099;28;20056;-43
2022/01/14 05:39:35;;;;;;;65.05;29.65;;;5.90;99.90;;;;;;4998096;28;20129;-45
2022/01/14 05:42:04;;;;;;;55.67;26.85;;;5.90;99.90;;;;;;4994094;28;20488;-44
2022/01/14 05:44:31;;;;;;;67.95;28.50;;;5.90;99.90;;;;;;4990851;28;20050;-39
2022/01/14 05:46:58;;;;;;;59.40;27.40;;;5.90;99.90;;;;;;4997082;28;20055;-48
2022/01/14 05:49:25;;;;;;;67.80;29.00;;;5.90;99.90;;;;;;5025438;28;20058;-43
2022/01/14 05:51:52;;;;;;;62.47;27.95;;;5.90;99.90;;;;;;5008788;28;20046;-44
2022/01/14 05:54:19;;;;;;;61.00;28.98;;;5.90;99.90;;;;;;4992957;28;20406;-43
2022/01/14 05:56:46;;;;;;;69.85;28.80;;;5.90;99.90;;;;;;5006480;28;20269;-44
2022/01/14 05:59:14;;;;;;;65.15;28.63;;;5.80;99.90;;;;;;4985688;28;20052;-47
2022/01/14 06:01:41;;;;;;;61.60;28.42;;;5.80;99.90;;;;;;4991722;28;20459;-46
2022/01/14 06:04:08;;;;;;;64.15;30.13;;;5.80;99.90;;;;;;4995579;28;20061;-46
2022/01/14 06:06:35;;;;;;;58.53;28.48;;;5.80;99.90;;;;;;4992978;28;20146;-45
2022/01/14 06:09:02;;;;;;;64.13;28.65;;;5.80;99.90;;;;;;4995087;28;20130;-45
2022/01/14 06:11:28;;;;;;;57.55;27.40;;;5.80;99.90;;;;;;5008358;28;20051;-44
2022/01/14 06:13:55;;;;;;;55.78;28.48;;;5.80;99.90;;;;;;4991500;28;20414;-44
2022/01/14 06:16:23;;;;;;;61.05;28.92;;;5.80;99.90;;;;;;4992619;28;20054;-43
2022/01/14 06:18:50;;;;;;;66.57;27.58;;;5.80;99.90;;;;;;5011198;28;20129;-45
2022/01/14 06:21:17;;;;;;;66.35;28.42;;;5.80;99.90;;;;;;4993118;28;20054;-45
2022/01/14 06:23:44;;;;;;;59.88;28.88;;;5.80;99.90;;;;;;4991007;28;20100;-43
2022/01/14 06:26:10;;;;;;;60.70;28.02;;;5.80;99.90;;;;;;4994204;28;20137;-44
2022/01/14 06:28:37;;;;;;;59.70;27.65;;;5.80;99.90;;;;;;5007820;28;20068;-45
2022/01/14 06:31:04;;;;;;;61.55;27.77;;;5.80;99.90;;;;;;4992763;28;20414;-46
2022/01/14 06:33:32;;;;;;;57.50;27.77;;;5.80;99.90;;;;;;5008943;28;20051;-44
2022/01/14 06:35:58;;;;;;;60.67;28.30;;;5.80;99.90;;;;;;4992856;28;20501;-43
2022/01/14 06:38:25;;;;;;;57.83;27.58;;;5.80;99.90;;;;;;5008131;28;20134;-44
2022/01/14 06:40:52;;;;;;;55.88;27.73;;;5.70;99.90;;;;;;4991379;28;20213;-43
2022/01/14 06:43:19;;;;;;;54.40;26.73;;;5.80;99.90;;;;;;4957207;22;20068;-44
2022/01/14 06:45:45;;;;;;;60.08;27.65;;;5.80;99.90;;;;;;4988600;28;20076;-44
2022/01/14 06:48:12;;;;;;;65.30;28.67;;;5.80;99.90;;;;;;4983520;28;20046;-40
2022/01/14 06:50:40;;;;;;;57.90;27.42;;;5.80;99.90;;;;;;4977209;28;20427;-42
2022/01/14 06:53:07;;;;;;;61.15;28.67;;;5.80;99.90;;;;;;4990174;28;20056;-45
2022/01/14 06:55:33;;;;;;;66.32;28.58;;;5.80;99.90;;;;;;4978137;28;20069;-44
2022/01/14 06:58:00;;;;;;;63.85;27.75;;;5.80;99.90;;;;;;4984942;28;20058;-44
2022/01/14 07:00:28;;;;;;;58.30;28.13;;;5.80;99.90;;;;;;4991955;28;20058;-43
2022/01/14 07:02:54;;;;;;;61.05;29.45;;;5.80;99.90;;;;;;4991323;28;20045;-42
2022/01/14 07:05:21;;;;;;;61.67;28.20;;;5.80;99.90;;;;;;4985466;28;20054;-44
2022/01/14 07:07:49;;;;;;;57.92;27.70;;;5.80;99.90;;;;;;4993386;28;20038;-47
2022/01/14 07:10:16;;;;;;;62.75;28.15;;;5.80;99.90;;;;;;4992577;28;20050;-44
2022/01/14 07:12:43;;;;;;;57.97;28.17;;;5.80;99.90;;;;;;4991921;28;20073;-45
2022/01/14 07:15:11;;;;;;;63.53;28.45;;;5.80;99.90;;;;;;4991976;28;20133;-47
2022/01/14 07:17:38;;;;;;;56.55;27.10;;;5.80;99.90;;;;;;4992880;28;20441;-44
2022/01/14 07:20:10;;;;;;;60.78;28.35;;;5.80;99.90;;;;;;4992163;28;20074;-44
2022/01/14 07:22:37;;;;;;;58.67;27.33;;;5.80;99.90;;;;;;4993089;28;20406;-42
2022/01/14 07:25:05;;;;;;;55.08;28.90;;;5.80;99.90;;;;;;4988453;28;20050;-42
2022/01/14 07:27:32;;;;;;;54.13;25.50;;;5.80;99.90;;;;;;4977429;28;20058;-46
2022/01/14 07:29:59;;;;;;;61.92;28.58;;;5.80;99.90;;;;;;4973683;28;20058;-44
2022/01/14 07:32:26;;;;;;;57.17;27.42;;;5.80;99.90;;;;;;4991957;28;20129;-43
2022/01/14 07:34:53;;;;;;;64.35;29.33;;;5.80;99.90;;;;;;4988145;28;20153;-41
2022/01/14 07:37:20;;;;;;;52.47;25.90;;;5.80;99.90;;;;;;4983344;28;20407;-44
2022/01/14 07:39:47;;;;;;;57.15;27.58;;;5.80;99.90;;;;;;4992029;28;20137;-45
2022/01/14 07:42:15;;;;;;;48.35;26.95;;;5.90;99.90;;;;;;4991637;28;20129;-42
2022/01/14 07:44:42;;;;;;;50.70;25.38;;;5.90;99.90;;;;;;4993213;28;20149;-44
2022/01/14 07:47:09;;;;;;;54.50;27.75;;;5.90;99.90;;;;;;4984933;28;20142;-48
2022/01/14 07:49:35;;;;;;;62.78;28.65;;;5.80;99.90;;;;;;4998093;28;20050;-44
2022/01/14 07:52:02;;;;;;;55.55;27.77;;;5.90;99.90;;;;;;4990541;28;20050;-43
2022/01/14 07:54:29;;;;;;;50.08;26.70;;;5.90;99.90;;;;;;4983746;28;20138;-45
2022/01/14 07:56:58;;;;;;;57.28;26.35;;;5.90;99.90;;;;;;4990868;28;20047;-44
2022/01/14 07:59:26;;;;;;;56.90;27.00;;;5.90;99.90;;;;;;4988174;28;20054;-44
2022/01/14 08:01:54;;;;;;;58.03;30.38;;;5.90;99.90;;;;;;4991767;28;20046;-45
2022/01/14 08:04:21;;;;;;;66.93;33.05;;;5.90;99.90;;;;;;4979089;28;20434;-48
2022/01/14 08:06:50;;;;;;;55.50;31.40;;;5.90;99.90;;;;;;4992262;28;20056;-44
2022/01/14 08:09:18;;;;;;;52.08;27.77;;;5.90;99.90;;;;;;4989917;28;20043;-44
2022/01/14 08:11:45;;;;;;;57.50;29.30;;;6.00;99.90;;;;;;4991135;28;20050;-43
2022/01/14 08:14:12;;;;;;;49.97;26.33;;;6.00;99.90;;;;;;4991085;28;20121;-42
2022/01/14 08:16:40;;;;;;;54.55;26.52;;;6.00;99.90;;;;;;4990394;28;20583;-45
2022/01/14 08:19:06;;;;;;;53.08;25.88;;;6.00;99.90;;;;;;4991659;28;20057;-46
2022/01/14 08:21:33;;;;;;;50.75;25.23;;;6.00;99.90;;;;;;4992085;28;20058;-45
2022/01/14 08:24:00;;;;;;;50.45;24.73;;;6.10;99.90;;;;;;5004601;28;20181;-43
2022/01/14 08:26:27;;;;;;;49.38;24.13;;;6.10;99.90;;;;;;4991425;28;20054;-44
2022/01/14 08:28:53;;;;;;;48.38;23.20;;;6.10;99.90;;;;;;4991763;28;20125;-45
2022/01/14 08:31:22;;;;;;;57.28;24.50;;;6.10;99.90;;;;;;4988838;28;20042;-44
2022/01/14 08:33:50;;;;;;;46.63;22.45;;;6.10;99.90;;;;;;4993465;28;20414;-45
2022/01/14 08:36:16;;;;;;;43.20;21.75;;;6.10;99.90;;;;;;4992286;28;20046;-45
2022/01/14 08:38:43;;;;;;;45.70;21.58;;;6.10;99.90;;;;;;4992728;28;20115;-43
2022/01/14 08:41:10;;;;;;;45.03;23.45;;;6.10;99.90;;;;;;4978396;28;20059;-43
2022/01/14 08:43:36;;;;;;;46.97;21.75;;;6.10;99.90;;;;;;4973968;28;20427;-45
2022/01/14 08:46:03;;;;;;;44.95;21.95;;;6.20;99.90;;;;;;4973884;28;20129;-47
2022/01/14 08:48:30;;;;;;;48.63;21.15;;;6.20;99.90;;;;;;4972834;28;20050;-44
2022/01/14 08:50:58;;;;;;;51.35;23.25;;;6.20;99.90;;;;;;4983935;28;20054;-45
2022/01/14 08:53:25;;;;;;;47.78;20.90;;;6.20;99.90;;;;;;4992172;28;20145;-45
2022/01/14 08:55:52;;;;;;;42.45;20.48;;;6.20;99.90;;;;;;4992766;28;20073;-45
2022/01/14 08:58:18;;;;;;;44.90;20.23;;;6.30;99.90;;;;;;4989831;28;20120;-43
2022/01/14 09:00:45;;;;;;;39.60;19.92;;;6.30;99.90;;;;;;4982051;28;20064;-44
2022/01/14 09:03:12;;;;;;;38.33;18.65;;;6.30;99.90;;;;;;4993062;28;20052;-47
2022/01/14 09:05:38;;;;;;;47.63;19.55;;;6.30;99.90;;;;;;4992813;28;20057;-44
2022/01/14 09:08:06;;;;;;;37.15;17.67;;;6.30;99.90;;;;;;4992098;28;20133;-47
2022/01/14 09:10:33;;;;;;;51.90;19.23;;;6.40;99.90;;;;;;4983347;28;20141;-45
2022/01/14 09:13:00;;;;;;;41.47;18.52;;;6.40;99.90;;;;;;4991795;28;20065;-45
2022/01/14 09:15:26;;;;;;;37.25;17.08;;;6.40;99.90;;;;;;4991872;28;20489;-43
2022/01/14 09:17:53;;;;;;;46.80;19.27;;;6.40;99.90;;;;;;4991913;28;20046;-46
2022/01/14 09:20:20;;;;;;;47.22;18.63;;;6.60;99.90;;;;;;4988972;28;20517;-43
2022/01/14 09:22:50;;;;;;;35.90;17.35;;;6.50;99.90;;;;;;4987908;28;20050;-44
2022/01/14 09:25:19;;;;;;;36.58;18.23;;;6.50;99.90;;;;;;4991432;28;20065;-46
2022/01/14 09:27:47;;;;;;;45.67;18.88;;;6.50;99.90;;;;;;4992781;28;20046;-42
2022/01/14 09:30:14;;;;;;;49.03;19.63;;;6.50;99.90;;;;;;4991797;28;20139;-43
2022/01/14 09:32:40;;;;;;;45.53;19.00;;;6.50;99.90;;;;;;4990984;28;20134;-44
2022/01/14 09:35:08;;;;;;;42.33;19.63;;;6.60;99.90;;;;;;4990799;28;20060;-46
2022/01/14 09:37:35;;;;;;;55.83;21.58;;;6.60;99.90;;;;;;4990211;28;20084;-44
2022/01/14 09:40:02;;;;;;;44.63;21.70;;;6.60;99.90;;;;;;4982676;28;20054;-41
2022/01/14 09:42:30;;;;;;;42.00;20.13;;;6.70;99.90;;;;;;4975941;28;20066;-46
2022/01/14 09:44:57;;;;;;;50.97;21.42;;;6.70;99.90;;;;;;4990638;28;20490;-47
2022/01/14 09:47:24;;;;;;;43.28;21.27;;;6.70;99.90;;;;;;4990364;28;20144;-43
2022/01/14 09:49:50;;;;;;;43.83;19.85;;;6.70;99.90;;;;;;4991504;28;20069;-45
2022/01/14 09:52:17;;;;;;;40.78;19.17;;;6.80;99.90;;;;;;4989877;28;20125;-47
2022/01/14 09:54:46;;;;;;;41.10;17.20;;;6.80;99.90;;;;;;4988236;28;20058;-42
2022/01/14 09:57:14;;;;;;;35.80;17.30;;;6.80;99.90;;;;;;4989152;28;20129;-44
2022/01/14 09:59:43;;;;;;;36.22;16.42;;;6.80;99.90;;;;;;4991084;28;20068;-47
2022/01/14 10:02:09;;;;;;;41.50;16.90;;;6.90;99.90;;;;;;4985192;28;20057;-47
2022/01/14 10:04:38;;;;;;;34.15;14.45;;;6.90;99.90;;;;;;4984267;28;20050;-44
2022/01/14 10:07:05;;;;;;;41.03;15.38;;;6.90;99.90;;;;;;4989437;28;20053;-45
2022/01/14 10:09:34;;;;;;;29.73;14.30;;;7.00;99.90;;;;;;4991203;28;20054;-46
2022/01/14 10:12:04;;;;;;;35.95;14.38;;;7.00;99.90;;;;;;4989159;28;20050;-42
2022/01/14 10:14:31;;;;;;;35.50;13.50;;;7.00;99.90;;;;;;4983639;28;20096;-45
2022/01/14 10:16:59;;;;;;;28.98;13.05;;;7.10;99.90;;;;;;4990203;28;20057;-44
2022/01/14 10:19:27;;;;;;;36.63;13.45;;;7.10;99.90;;;;;;4990088;28;20058;-43
2022/01/14 10:21:54;;;;;;;29.50;12.18;;;7.20;99.90;;;;;;4986769;28;20047;-45
2022/01/14 10:24:22;;;;;;;38.85;11.98;;;7.20;99.90;;;;;;4989337;28;20093;-44
2022/01/14 10:26:50;;;;;;;28.85;11.65;;;7.20;99.90;;;;;;4991440;28;20050;-45
2022/01/14 10:29:25;;;;;;;31.63;11.23;;;7.20;99.90;;;;;;4990816;28;20043;-45
2022/01/14 10:31:52;;;;;;;25.63;10.25;;;7.20;99.90;;;;;;4990494;28;20058;-47
2022/01/14 10:34:20;;;;;;;25.67;10.55;;;7.30;99.90;;;;;;4977061;28;20130;-44
2022/01/14 10:36:48;;;;;;;21.88;9.52;;;7.30;99.90;;;;;;4990742;28;20125;-42
2022/01/14 10:39:20;;;;;;;22.30;9.20;;;7.30;99.90;;;;;;4990417;28;20053;-44
2022/01/14 10:41:46;;;;;;;26.60;9.43;;;7.30;99.90;;;;;;4990416;28;20038;-44
2022/01/14 10:44:24;;;;;;;22.58;9.18;;;7.30;99.90;;;;;;4985766;28;20101;-45
2022/01/14 10:46:51;;;;;;;23.10;8.82;;;7.40;99.90;;;;;;4990081;28;20045;-48
2022/01/14 10:49:34;;;;;;;24.17;9.00;;;7.40;99.90;;;;;;4989197;28;20058;-45
2022/01/14 10:52:10;;;;;;;25.38;7.60;;;7.40;99.90;;;;;;4990309;28;20137;-43
2022/01/14 10:54:41;;;;;;;24.92;8.13;;;7.40;99.90;;;;;;4990214;28;20060;-46
2022/01/14 10:57:18;;;;;;;21.23;8.27;;;7.50;99.90;;;;;;4988210;28;20046;-45
2022/01/14 10:59:45;;;;;;;24.70;8.50;;;7.50;99.90;;;;;;4990815;28;20301;-44
2022/01/14 11:02:31;;;;;;;21.58;7.53;;;7.50;99.90;;;;;;4990650;28;20060;-45
2022/01/14 11:05:07;;;;;;;26.13;8.38;;;7.60;99.90;;;;;;4979586;28;20129;-44
2022/01/14 11:07:34;;;;;;;17.45;7.18;;;7.50;99.90;;;;;;4990126;28;20085;-45
2022/01/14 11:10:01;;;;;;;22.40;7.85;;;7.50;99.90;;;;;;4989711;28;20413;-46
2022/01/14 11:12:29;;;;;;;19.88;7.75;;;7.60;99.90;;;;;;4992051;28;20054;-44
2022/01/14 11:14:56;;;;;;;22.17;8.00;;;7.60;99.90;;;;;;4989569;28;20059;-46
2022/01/14 11:17:23;;;;;;;19.15;7.18;;;7.60;99.90;;;;;;4989333;28;20042;-44
2022/01/14 11:19:49;;;;;;;29.92;8.38;;;7.60;99.90;;;;;;4990849;28;20457;-45
2022/01/14 11:25:01;;;;;;;25.45;7.50;;;7.60;99.90;;;;;;4989992;28;20050;-45
2022/01/14 11:27:28;;;;;;;23.60;6.75;;;7.60;99.90;;;;;;4981547;28;20058;-47
2022/01/14 11:29:58;;;;;;;23.02;7.40;;;7.60;99.90;;;;;;4986540;28;20054;-45
2022/01/14 11:32:25;;;;;;;17.33;6.82;;;7.60;99.90;;;;;;4991426;28;20051;-43
2022/01/14 11:34:52;;;;;;;27.10;7.18;;;7.60;99.90;;;;;;4990467;28;20495;-43
2022/01/14 11:37:32;;;;;;;72.38;32.67;;;7.60;99.90;;;;;;4989490;28;20432;-45
2022/01/14 11:40:00;;;;;;;54.05;23.60;;;7.60;99.90;;;;;;4971223;28;20446;-47
2022/01/14 11:42:39;;;;;;;19.48;6.80;;;7.60;99.90;;;;;;4989437;28;20405;-44
2022/01/14 11:45:07;;;;;;;19.73;6.65;;;7.60;99.90;;;;;;4993746;28;20128;-47
2022/01/14 11:48:01;;;;;;;19.80;6.43;;;7.60;99.90;;;;;;4994336;28;20487;-47
2022/01/14 11:50:50;;;;;;;26.00;6.85;;;7.60;99.90;;;;;;4972247;28;20058;-49
2022/01/14 11:53:41;;;;;;;19.27;5.68;;;7.70;99.90;;;;;;4994588;28;20062;-45
2022/01/14 11:56:23;;;;;;;25.88;5.18;;;7.70;99.90;;;;;;4989890;28;20368;-45
2022/01/14 11:58:50;;;;;;;16.90;5.10;;;7.70;99.90;;;;;;4978825;28;20502;-45
2022/01/14 12:01:34;;;;;;;20.70;4.90;;;7.70;99.90;;;;;;4976146;28;20435;-44
2022/01/14 12:04:01;;;;;;;17.48;5.32;;;7.70;99.90;;;;;;4991310;28;20133;-46
2022/01/14 12:06:49;;;;;;;15.50;5.35;;;7.70;99.90;;;;;;4989025;28;20038;-47
2022/01/14 12:09:18;;;;;;;17.05;5.35;;;7.70;99.90;;;;;;4976916;28;20062;-48
2022/01/14 12:11:44;;;;;;;18.90;5.65;;;7.70;99.90;;;;;;4993315;28;20045;-45
2022/01/14 12:14:12;;;;;;;18.67;5.80;;;7.70;99.90;;;;;;4993553;28;20078;-44
2022/01/14 12:16:48;;;;;;;20.40;5.75;;;7.70;99.90;;;;;;4989046;28;20058;-45
2022/01/14 12:19:21;;;;;;;21.90;5.10;;;7.70;99.90;;;;;;4993435;28;20115;-44
2022/01/14 12:22:06;;;;;;;25.17;5.47;;;7.70;99.90;;;;;;4992493;28;20057;-46
2022/01/14 12:24:35;;;;;;;11.38;5.03;;;7.70;99.90;;;;;;4993770;28;20054;-43
2022/01/14 12:27:31;;;;;;;26.08;5.47;;;7.70;99.90;;;;;;4992871;28;20113;-45
2022/01/14 12:30:05;;;;;;;17.80;5.65;;;7.70;99.90;;;;;;4990973;28;20125;-44
2022/01/14 12:32:34;;;;;;;16.60;5.20;;;7.70;99.90;;;;;;4993499;28;20505;-45
2022/01/14 12:35:05;;;;;;;17.63;5.20;;;7.70;99.90;;;;;;4993016;28;20502;-48
2022/01/14 12:37:33;;;;;;;19.60;5.40;;;7.70;99.90;;;;;;4986255;28;20046;-45
2022/01/14 12:40:05;;;;;;;20.38;5.90;;;7.70;99.90;;;;;;4994893;28;20410;-43
2022/01/14 12:42:32;;;;;;;21.55;5.63;;;7.80;99.90;;;;;;4992076;28;20079;-45
2022/01/14 12:45:00;;;;;;;27.48;5.60;;;7.70;99.90;;;;;;4992575;28;20056;-45
2022/01/14 12:47:32;;;;;;;22.92;5.78;;;7.80;99.90;;;;;;4993148;28;20406;-45
2022/01/14 12:50:01;;;;;;;;;;;7.70;99.90;;;;;;4993705;28;20050;-48
2022/01/14 12:52:37;;;;;;;16.30;5.38;;;7.70;99.90;;;;;;4992446;28;19962;-44
2022/01/14 12:55:06;;;;;;;22.25;5.80;;;7.70;99.90;;;;;;4985419;28;20054;-47
2022/01/14 12:57:33;;;;;;;19.77;5.43;;;7.70;99.90;;;;;;4982053;28;20047;-46
2022/01/14 13:00:00;;;;;;;21.85;6.38;;;7.70;99.90;;;;;;4991991;28;20062;-44
2022/01/14 13:02:28;;;;;;;24.23;6.70;;;7.80;99.90;;;;;;4992195;28;20054;-49